Time;durP1;ratioP1;P1;durP2;ratioP2;P2;SDS_P1;SDS_P2;PMS_P1;PMS_P2;Temp;Humidity;BMP_temperature;BMP_pressure;BME280_temperature;BME280_humidity;BME280_pressure;Samples;Min_cycle;Max_cycle;Signal;HPM_P1;HPM_P2
2021/05/21 00:02:17;;;;;;;1.85;0.30;;;13.40;77.90;;;;;;4994704;28;20041;-80
2021/05/21 00:04:42;;;;;;;3.47;0.25;;;13.40;77.90;;;;;;4992952;28;20033;-80
2021/05/21 00:07:08;;;;;;;2.28;0.30;;;13.40;78.60;;;;;;4996047;28;20042;-80
2021/05/21 00:09:34;;;;;;;1.20;0.20;;;13.40;78.00;;;;;;4992908;28;20057;-79
2021/05/21 00:11:59;;;;;;;4.10;0.30;;;13.30;78.00;;;;;;4995087;28;20048;-79
2021/05/21 00:14:25;;;;;;;1.77;0.30;;;13.30;78.10;;;;;;4991430;28;20100;-80
2021/05/21 00:16:50;;;;;;;1.95;0.30;;;13.30;78.30;;;;;;4993215;28;20022;-81
2021/05/21 00:19:16;;;;;;;0.95;0.30;;;13.30;78.20;;;;;;4991079;28;20033;-80
2021/05/21 00:21:41;;;;;;;1.13;0.28;;;13.30;78.90;;;;;;4997517;28;20030;-79
2021/05/21 00:24:07;;;;;;;1.33;0.32;;;13.40;78.20;;;;;;4992921;28;20022;-81
2021/05/21 00:26:33;;;;;;;2.05;0.20;;;13.40;78.10;;;;;;4993657;28;20034;-79
2021/05/21 00:28:59;;;;;;;4.18;0.28;;;13.40;78.00;;;;;;4997939;28;20042;-80
2021/05/21 00:31:24;;;;;;;1.35;0.20;;;13.40;78.00;;;;;;4985822;28;20111;-79
2021/05/21 00:33:50;;;;;;;0.60;0.20;;;13.50;78.00;;;;;;4996526;28;20045;-80
2021/05/21 00:36:16;;;;;;;0.47;0.20;;;13.50;78.00;;;;;;4993421;28;20041;-80
2021/05/21 00:38:42;;;;;;;1.38;0.20;;;13.50;78.00;;;;;;4990488;28;20026;-80
2021/05/21 00:41:08;;;;;;;4.05;0.40;;;13.50;77.90;;;;;;5004998;28;20470;-80
2021/05/21 00:43:33;;;;;;;2.10;0.30;;;13.50;77.90;;;;;;4994669;28;20075;-80
2021/05/21 00:46:00;;;;;;;2.55;0.20;;;13.60;77.80;;;;;;4998185;28;20038;-80
2021/05/21 00:48:26;;;;;;;1.17;0.20;;;13.60;77.70;;;;;;4992266;28;20079;-80
2021/05/21 00:50:52;;;;;;;2.42;0.20;;;13.60;77.70;;;;;;4993131;28;20857;-80
2021/05/21 00:53:19;;;;;;;1.95;0.20;;;13.60;77.50;;;;;;4995482;28;20031;-81
2021/05/21 00:55:45;;;;;;;1.67;0.60;;;13.70;77.50;;;;;;5016762;28;20022;-81
2021/05/21 00:58:10;;;;;;;1.83;0.20;;;13.70;77.30;;;;;;4995292;28;20037;-81
2021/05/21 01:00:36;;;;;;;1.13;0.10;;;13.70;77.20;;;;;;4993726;28;20036;-80
2021/05/21 01:03:01;;;;;;;1.90;0.25;;;13.70;77.10;;;;;;4993322;28;20103;-80
2021/05/21 01:05:27;;;;;;;2.40;0.20;;;13.70;77.10;;;;;;4994020;28;20064;-80
2021/05/21 01:07:53;;;;;;;3.35;0.35;;;13.70;77.10;;;;;;4994902;28;20034;-80
2021/05/21 01:10:18;;;;;;;2.10;0.40;;;13.70;77.00;;;;;;4993773;28;20081;-80
2021/05/21 01:12:44;;;;;;;0.82;0.30;;;13.80;77.10;;;;;;4991682;28;20594;-80
2021/05/21 01:15:11;;;;;;;2.03;0.30;;;13.70;77.10;;;;;;4994859;28;20034;-80
2021/05/21 01:17:37;;;;;;;1.45;0.30;;;13.70;77.10;;;;;;4993646;28;20027;-79
2021/05/21 01:20:05;;;;;;;2.10;0.30;;;13.70;77.10;;;;;;4991443;28;20065;-80
2021/05/21 01:22:30;;;;;;;2.72;0.30;;;13.80;77.40;;;;;;4993951;28;20033;-81
2021/05/21 01:24:56;;;;;;;2.42;0.20;;;13.70;77.10;;;;;;4991664;28;20030;-80
2021/05/21 01:27:22;;;;;;;2.75;0.30;;;13.70;77.20;;;;;;4993265;28;20053;-79
2021/05/21 01:29:48;;;;;;;1.98;0.52;;;13.70;77.30;;;;;;4996006;28;20089;-81
2021/05/21 01:32:13;;;;;;;2.67;0.38;;;13.70;77.30;;;;;;4994932;28;20052;-81
2021/05/21 01:34:39;;;;;;;2.28;0.38;;;13.70;77.30;;;;;;4994693;28;20034;-81
2021/05/21 01:37:15;;;;;;;1.92;0.30;;;13.70;77.30;;;;;;4997198;28;20022;-80
2021/05/21 01:39:41;;;;;;;1.38;0.30;;;13.80;77.20;;;;;;4998028;28;20045;-80
2021/05/21 01:42:10;;;;;;;2.58;0.20;;;13.70;77.00;;;;;;5010245;28;20034;-81
2021/05/21 01:44:36;;;;;;;1.58;0.20;;;13.80;77.10;;;;;;4998845;28;20452;-82
2021/05/21 01:47:01;;;;;;;1.40;0.35;;;13.80;77.00;;;;;;4994794;28;20114;-80
2021/05/21 01:49:27;;;;;;;2.03;0.20;;;13.70;77.10;;;;;;4994623;28;20117;-80
2021/05/21 01:51:58;;;;;;;2.55;0.20;;;13.80;77.30;;;;;;4993630;28;20034;-81
2021/05/21 01:54:25;;;;;;;0.73;0.20;;;13.70;77.50;;;;;;4987567;28;22122;-80
2021/05/21 01:56:53;;;;;;;3.88;0.20;;;13.70;77.80;;;;;;4992492;28;20123;-80
2021/05/21 01:59:20;;;;;;;1.25;0.20;;;13.60;78.00;;;;;;4995271;28;20255;-81
2021/05/21 02:01:46;;;;;;;3.60;0.30;;;13.60;78.20;;;;;;4993214;28;20030;-80
2021/05/21 02:04:13;;;;;;;1.70;0.30;;;13.50;78.30;;;;;;4993469;28;20082;-80
2021/05/21 02:06:38;;;;;;;2.95;0.35;;;13.50;78.40;;;;;;4990552;28;20593;-80
2021/05/21 02:09:08;;;;;;;2.83;0.30;;;13.50;78.50;;;;;;4993027;28;20080;-81
2021/05/21 02:11:34;;;;;;;7.47;0.70;;;13.50;79.10;;;;;;4992370;28;20040;-81
2021/05/21 02:13:59;;;;;;;9.68;1.00;;;13.30;81.90;;;;;;4995905;28;20054;-80
2021/05/21 02:16:25;;;;;;;10.50;1.15;;;13.10;83.00;;;;;;4996040;28;20400;-80
2021/05/21 02:18:50;;;;;;;12.32;1.63;;;12.80;84.50;;;;;;4994473;28;20034;-81
2021/05/21 02:21:16;;;;;;;11.15;1.30;;;12.60;85.10;;;;;;4993755;28;20033;-82
2021/05/21 02:23:42;;;;;;;12.88;1.25;;;12.40;86.10;;;;;;4994257;28;20550;-83
2021/05/21 02:26:07;;;;;;;18.42;2.38;;;12.30;86.50;;;;;;4996326;28;20022;-83
2021/05/21 02:28:33;;;;;;;12.90;1.50;;;12.10;87.60;;;;;;4995563;28;20046;-83
2021/05/21 02:31:00;;;;;;;17.05;1.35;;;12.00;88.20;;;;;;4995803;28;20030;-83
2021/05/21 02:33:26;;;;;;;17.63;1.38;;;11.80;88.50;;;;;;4994741;28;20138;-83
2021/05/21 02:35:51;;;;;;;19.20;1.65;;;11.70;89.60;;;;;;4994597;28;20057;-83
2021/05/21 02:38:17;;;;;;;13.70;1.48;;;11.50;90.00;;;;;;4997448;28;20030;-83
2021/05/21 02:40:42;;;;;;;15.75;2.00;;;11.50;90.30;;;;;;4996929;28;20026;-81
2021/05/21 02:43:08;;;;;;;14.23;1.30;;;11.40;90.40;;;;;;4996904;28;20034;-82
2021/05/21 02:45:33;;;;;;;17.58;1.58;;;11.40;90.60;;;;;;4995914;28;20068;-82
2021/05/21 02:47:59;;;;;;;18.60;1.58;;;11.30;90.60;;;;;;4993816;28;20048;-82
2021/05/21 02:50:25;;;;;;;8.80;1.08;;;11.30;90.70;;;;;;4997024;28;20079;-82
2021/05/21 02:52:50;;;;;;;13.90;1.40;;;11.30;90.80;;;;;;4992964;28;20031;-81
2021/05/21 02:55:16;;;;;;;12.77;1.13;;;11.30;91.00;;;;;;4993078;28;20041;-81
2021/05/21 02:57:41;;;;;;;15.25;1.95;;;11.30;91.20;;;;;;4997194;28;20413;-83
2021/05/21 03:00:09;;;;;;;14.38;1.63;;;11.30;91.20;;;;;;5000173;28;20034;-83
2021/05/21 03:02:34;;;;;;;8.65;1.15;;;11.20;91.30;;;;;;4994327;28;20489;-83
2021/05/21 03:05:00;;;;;;;15.80;1.70;;;11.20;91.30;;;;;;4996819;28;20046;-83
2021/05/21 03:07:25;;;;;;;13.88;1.30;;;11.20;91.40;;;;;;4992760;28;20034;-82
2021/05/21 03:09:51;;;;;;;10.73;1.30;;;11.20;91.50;;;;;;4998744;28;20034;-82
2021/05/21 03:12:16;;;;;;;9.82;0.95;;;11.20;91.50;;;;;;4996242;28;20067;-83
2021/05/21 03:14:42;;;;;;;17.00;1.77;;;11.20;91.60;;;;;;4991665;28;20050;-81
2021/05/21 03:17:08;;;;;;;12.50;1.50;;;11.20;91.70;;;;;;4996547;28;20026;-81
2021/05/21 03:19:33;;;;;;;7.78;1.02;;;11.20;91.70;;;;;;4997004;28;20071;-82
2021/05/21 03:21:59;;;;;;;9.95;0.82;;;11.20;91.80;;;;;;4994939;28;20069;-83
2021/05/21 03:24:24;;;;;;;11.20;0.90;;;11.10;91.80;;;;;;4991806;28;20042;-82
2021/05/21 03:26:51;;;;;;;13.40;1.08;;;11.10;91.70;;;;;;4995365;28;20038;-82
2021/05/21 03:29:17;;;;;;;7.55;0.95;;;11.10;91.70;;;;;;4995519;28;20034;-83
2021/05/21 03:31:43;;;;;;;13.18;1.30;;;11.00;91.80;;;;;;4990935;28;20118;-83
2021/05/21 03:34:10;;;;;;;14.77;1.33;;;11.00;91.80;;;;;;4997236;28;20049;-83
2021/05/21 03:36:35;;;;;;;11.45;0.82;;;10.90;91.60;;;;;;4997160;28;20037;-83
2021/05/21 03:39:03;;;;;;;14.23;1.38;;;10.90;91.60;;;;;;4998934;28;20034;-82
2021/05/21 03:41:28;;;;;;;12.05;0.90;;;10.80;91.60;;;;;;4995647;28;20030;-82
2021/05/21 03:43:54;;;;;;;15.07;1.55;;;10.80;91.60;;;;;;5000047;28;20030;-82
2021/05/21 03:46:19;;;;;;;13.43;0.80;;;10.70;91.60;;;;;;4996874;28;20034;-83
2021/05/21 03:48:45;;;;;;;11.20;1.08;;;10.60;91.60;;;;;;4998571;28;20050;-83
2021/05/21 03:51:10;;;;;;;9.48;1.10;;;10.70;91.70;;;;;;5001523;28;20030;-82
2021/05/21 03:53:36;;;;;;;8.57;0.80;;;10.70;91.60;;;;;;4997658;28;20053;-82
2021/05/21 03:56:02;;;;;;;8.77;1.05;;;10.70;91.90;;;;;;4998421;28;20026;-83
2021/05/21 03:58:27;;;;;;;13.35;1.20;;;10.80;91.60;;;;;;5000056;28;20065;-82
2021/05/21 04:00:54;;;;;;;8.68;1.45;;;10.80;91.60;;;;;;5002120;28;20038;-82
2021/05/21 04:03:20;;;;;;;10.00;0.90;;;10.80;91.60;;;;;;4996561;28;20034;-82
2021/05/21 04:05:45;;;;;;;13.32;1.27;;;10.80;91.60;;;;;;4993609;28;20026;-82
2021/05/21 04:08:11;;;;;;;11.57;0.93;;;10.80;91.50;;;;;;4996826;28;20053;-82
2021/05/21 04:10:37;;;;;;;9.88;0.80;;;10.80;91.50;;;;;;4998925;28;20597;-82
2021/05/21 04:13:03;;;;;;;13.25;1.17;;;10.80;91.60;;;;;;4996410;28;20046;-82
2021/05/21 04:15:28;;;;;;;12.02;0.88;;;10.80;91.50;;;;;;4997052;28;20038;-82
2021/05/21 04:17:54;;;;;;;7.10;1.05;;;10.80;91.60;;;;;;4999903;28;20366;-82
2021/05/21 04:20:20;;;;;;;8.85;0.90;;;10.80;91.60;;;;;;4993239;28;20048;-82
2021/05/21 04:22:45;;;;;;;9.45;1.10;;;10.80;91.70;;;;;;4995312;28;20103;-81
2021/05/21 04:25:12;;;;;;;12.18;1.63;;;10.80;91.80;;;;;;4997134;28;20030;-82
2021/05/21 04:27:38;;;;;;;7.55;1.00;;;10.80;91.90;;;;;;4998243;28;20018;-83
2021/05/21 04:30:05;;;;;;;8.77;1.15;;;10.80;91.90;;;;;;4996263;28;20041;-81
2021/05/21 04:32:31;;;;;;;6.88;0.77;;;10.80;92.00;;;;;;4997670;28;20120;-82
2021/05/21 04:34:57;;;;;;;8.43;0.88;;;10.80;92.00;;;;;;4995366;28;20501;-82
2021/05/21 04:37:23;;;;;;;16.88;1.13;;;10.80;92.10;;;;;;4999068;28;20023;-82
2021/05/21 04:39:49;;;;;;;11.57;1.33;;;10.80;92.10;;;;;;4993941;28;20065;-82
2021/05/21 04:42:14;;;;;;;14.35;1.15;;;10.80;92.40;;;;;;4996618;28;20529;-83
2021/05/21 04:44:40;;;;;;;11.23;1.35;;;10.80;92.20;;;;;;4996001;28;20137;-83
2021/05/21 04:47:07;;;;;;;11.75;1.63;;;10.80;92.20;;;;;;4994402;28;20062;-82
2021/05/21 04:49:32;;;;;;;9.80;1.30;;;10.90;92.30;;;;;;4994510;28;20026;-83
2021/05/21 04:52:07;;;;;;;13.88;1.33;;;11.00;92.30;;;;;;4989584;28;20045;-82
2021/05/21 04:54:34;;;;;;;12.60;1.15;;;11.10;92.20;;;;;;4994458;28;20087;-82
2021/05/21 04:57:00;;;;;;;13.93;1.17;;;11.10;92.20;;;;;;4988646;28;21497;-83
2021/05/21 04:59:25;;;;;;;13.55;1.42;;;11.10;92.10;;;;;;4989933;28;20029;-82
2021/05/21 05:01:51;;;;;;;12.57;1.48;;;11.20;92.10;;;;;;4994091;28;20548;-83
2021/05/21 05:04:17;;;;;;;12.93;1.75;;;11.30;92.20;;;;;;4987699;28;20521;-83
2021/05/21 05:06:43;;;;;;;8.65;1.42;;;11.40;92.20;;;;;;4996551;28;20416;-82
2021/05/21 05:09:09;;;;;;;11.98;1.58;;;11.50;92.20;;;;;;4989983;28;21870;-82
2021/05/21 05:11:39;;;;;;;9.15;1.25;;;11.60;92.10;;;;;;4989121;28;21670;-82
2021/05/21 05:14:04;;;;;;;14.10;1.17;;;11.70;92.00;;;;;;4990810;28;20604;-81
2021/05/21 05:16:30;;;;;;;14.60;1.40;;;11.80;91.50;;;;;;4988936;28;20033;-80
2021/05/21 05:18:56;;;;;;;11.77;1.33;;;11.90;91.50;;;;;;4996203;28;20040;-81
2021/05/21 05:21:21;;;;;;;8.82;1.10;;;12.10;91.20;;;;;;4987790;28;20474;-81
2021/05/21 05:23:48;;;;;;;9.93;1.10;;;12.20;91.10;;;;;;4989424;28;20909;-81
2021/05/21 05:26:13;;;;;;;14.32;1.70;;;12.50;91.10;;;;;;4988728;28;20034;-81
2021/05/21 05:28:47;;;;;;;14.40;1.95;;;12.70;90.90;;;;;;4988069;28;20397;-83
2021/05/21 05:31:13;;;;;;;8.63;1.05;;;12.90;90.10;;;;;;4988535;28;20049;-83
2021/05/21 05:33:40;;;;;;;11.32;1.20;;;13.10;88.50;;;;;;4991589;28;20560;-83
2021/05/21 05:36:06;;;;;;;12.10;1.23;;;13.30;86.20;;;;;;4992374;28;20034;-81
2021/05/21 05:38:32;;;;;;;11.98;1.33;;;13.30;84.90;;;;;;4988303;28;20044;-81
2021/05/21 05:40:58;;;;;;;13.85;0.93;;;13.40;83.50;;;;;;4987919;28;20026;-83
2021/05/21 05:43:24;;;;;;;7.00;0.88;;;13.30;83.00;;;;;;4989912;28;20029;-81
2021/05/21 05:45:49;;;;;;;14.20;1.60;;;13.20;82.00;;;;;;4995734;28;20034;-81
2021/05/21 05:48:18;;;;;;;15.77;1.48;;;13.20;81.60;;;;;;5008806;28;20093;-81
2021/05/21 05:50:44;;;;;;;9.55;0.80;;;13.20;81.80;;;;;;5008435;28;20018;-81
2021/05/21 05:53:09;;;;;;;12.50;1.20;;;13.20;81.50;;;;;;5001321;28;20080;-81
2021/05/21 05:55:35;;;;;;;10.90;0.75;;;13.20;81.40;;;;;;5010828;28;20116;-81
2021/05/21 05:58:00;;;;;;;11.02;1.65;;;13.30;81.50;;;;;;5008022;28;20033;-81
2021/05/21 06:00:26;;;;;;;11.18;1.10;;;13.30;79.70;;;;;;5012089;28;20030;-82
2021/05/21 06:02:51;;;;;;;9.82;0.93;;;13.30;79.20;;;;;;5001024;28;20080;-81
2021/05/21 06:05:17;;;;;;;13.88;1.00;;;13.30;78.60;;;;;;4998652;28;20033;-81
2021/05/21 06:07:42;;;;;;;12.18;0.80;;;13.30;78.00;;;;;;5008815;28;20022;-81
2021/05/21 06:10:09;;;;;;;13.00;1.45;;;13.30;77.60;;;;;;5005859;28;20034;-81
2021/05/21 06:12:35;;;;;;;13.75;1.10;;;13.20;76.20;;;;;;5005158;28;20050;-83
2021/05/21 06:15:00;;;;;;;14.00;1.10;;;13.20;75.10;;;;;;5004407;28;20116;-82
2021/05/21 06:17:26;;;;;;;12.65;1.33;;;13.20;73.40;;;;;;5005070;28;20481;-81
2021/05/21 06:19:51;;;;;;;8.50;0.85;;;13.20;74.60;;;;;;5004122;28;20561;-80
2021/05/21 06:22:17;;;;;;;12.82;1.35;;;13.30;74.70;;;;;;5000912;28;20363;-81
2021/05/21 06:24:45;;;;;;;10.50;1.08;;;13.40;75.20;;;;;;4999737;28;20018;-80
2021/05/21 06:27:29;;;;;;;6.68;1.00;;;13.50;74.20;;;;;;5004840;28;20026;-81
2021/05/21 06:29:54;;;;;;;10.20;1.50;;;13.50;73.40;;;;;;5001580;28;20105;-81
2021/05/21 06:32:20;;;;;;;11.73;1.20;;;13.70;73.30;;;;;;4994343;28;20139;-80
2021/05/21 06:34:46;;;;;;;11.90;1.17;;;13.70;73.10;;;;;;5002885;28;20473;-80
2021/05/21 06:37:11;;;;;;;13.73;1.20;;;13.80;71.60;;;;;;5035645;28;20454;-80
2021/05/21 06:39:37;;;;;;;11.27;1.00;;;13.90;72.40;;;;;;5004951;28;20026;-80
2021/05/21 06:42:02;;;;;;;8.35;0.85;;;14.00;69.70;;;;;;4999725;28;20027;-81
2021/05/21 06:44:28;;;;;;;11.35;1.00;;;14.10;69.90;;;;;;5004051;28;20049;-81
2021/05/21 06:46:57;;;;;;;9.70;0.70;;;14.10;68.70;;;;;;5010784;28;20109;-80
2021/05/21 06:49:23;;;;;;;14.75;0.98;;;14.00;67.70;;;;;;5008364;28;20514;-80
2021/05/21 06:51:49;;;;;;;10.18;1.33;;;13.90;68.30;;;;;;4997957;28;20022;-81
2021/05/21 06:54:14;;;;;;;9.88;0.93;;;13.80;68.60;;;;;;4991311;28;20176;-80
2021/05/21 06:56:40;;;;;;;12.80;1.33;;;13.80;68.10;;;;;;5005284;28;20075;-81
2021/05/21 06:59:05;;;;;;;14.40;1.95;;;13.80;68.60;;;;;;4995999;28;20109;-80
2021/05/21 07:01:31;;;;;;;9.48;1.33;;;13.90;68.70;;;;;;5006488;28;20025;-80
2021/05/21 07:03:58;;;;;;;11.70;1.23;;;14.10;69.20;;;;;;5009539;28;20104;-81
2021/05/21 07:06:24;;;;;;;10.13;1.42;;;14.20;68.50;;;;;;4997651;28;20030;-82
2021/05/21 07:08:50;;;;;;;16.13;3.05;;;14.20;68.70;;;;;;4996253;28;20092;-81
2021/05/21 07:11:16;;;;;;;6.35;0.90;;;14.20;68.50;;;;;;5005922;28;20113;-82
2021/05/21 07:13:41;;;;;;;11.77;1.10;;;14.10;68.50;;;;;;4991218;28;20050;-81
2021/05/21 07:16:07;;;;;;;12.50;1.27;;;14.00;68.40;;;;;;5005709;28;20083;-82
2021/05/21 07:18:32;;;;;;;11.25;1.20;;;13.90;69.20;;;;;;5000031;28;20571;-83
2021/05/21 07:21:02;;;;;;;12.23;1.05;;;13.80;69.70;;;;;;5004421;28;20112;-82
2021/05/21 07:23:29;;;;;;;11.20;0.93;;;13.80;70.50;;;;;;5004928;28;20025;-82
2021/05/21 07:25:55;;;;;;;8.63;1.02;;;13.90;70.60;;;;;;5000141;28;20029;-83
2021/05/21 07:28:20;;;;;;;9.23;1.15;;;14.00;70.30;;;;;;4990554;28;20030;-83
2021/05/21 07:30:46;;;;;;;9.82;1.38;;;14.00;70.80;;;;;;4998018;28;20019;-83
2021/05/21 07:33:12;;;;;;;15.52;1.48;;;14.10;71.40;;;;;;5001886;28;20038;-82
2021/05/21 07:35:37;;;;;;;7.32;0.90;;;14.30;71.90;;;;;;5006720;28;20042;-82
2021/05/21 07:38:03;;;;;;;6.47;0.70;;;14.50;72.40;;;;;;5003192;28;20026;-83
2021/05/21 07:40:29;;;;;;;8.23;0.80;;;14.80;72.10;;;;;;5001296;28;20040;-83
2021/05/21 07:42:56;;;;;;;5.55;0.55;;;14.70;72.50;;;;;;5001070;28;20029;-82
2021/05/21 07:45:22;;;;;;;11.82;1.00;;;14.50;73.40;;;;;;5004499;28;20079;-82
2021/05/21 07:47:47;;;;;;;7.78;1.10;;;14.20;75.90;;;;;;5034224;28;20487;-82
2021/05/21 07:50:14;;;;;;;9.73;0.90;;;13.90;77.60;;;;;;5009607;28;20050;-83
2021/05/21 07:52:39;;;;;;;8.45;0.82;;;13.50;78.30;;;;;;5003020;28;20029;-83
2021/05/21 07:55:06;;;;;;;6.78;0.90;;;13.20;80.50;;;;;;5004348;28;20034;-84
2021/05/21 07:57:32;;;;;;;6.68;0.95;;;12.80;82.30;;;;;;5007070;28;20152;-84
2021/05/21 07:59:58;;;;;;;6.30;0.80;;;12.40;83.50;;;;;;4991125;28;20087;-83
2021/05/21 08:02:23;;;;;;;7.97;0.90;;;12.30;85.00;;;;;;5009258;28;20517;-84
2021/05/21 08:04:49;;;;;;;6.32;0.60;;;12.20;86.70;;;;;;5004802;28;20034;-81
2021/05/21 08:07:15;;;;;;;4.22;0.40;;;12.30;86.70;;;;;;4998539;28;20033;-81
2021/05/21 08:09:43;;;;;;;5.13;0.50;;;12.30;85.90;;;;;;5003017;28;20116;-81
2021/05/21 08:12:10;;;;;;;7.13;0.57;;;12.40;85.50;;;;;;4997703;28;20042;-80
2021/05/21 08:14:36;;;;;;;6.45;0.85;;;12.40;86.00;;;;;;4997964;28;20026;-79
2021/05/21 08:17:02;;;;;;;6.65;1.02;;;12.60;86.10;;;;;;5004132;28;20030;-79
2021/05/21 08:19:27;;;;;;;6.85;1.00;;;12.70;86.50;;;;;;5002677;28;20037;-80
2021/05/21 08:21:53;;;;;;;10.18;1.50;;;12.80;86.70;;;;;;5007591;28;20022;-79
2021/05/21 08:24:19;;;;;;;11.80;1.38;;;13.00;87.00;;;;;;4993142;28;20061;-78
2021/05/21 08:26:44;;;;;;;10.50;0.90;;;13.00;86.20;;;;;;4993390;28;20026;-79
2021/05/21 08:29:10;;;;;;;12.45;1.52;;;13.10;86.30;;;;;;4998119;28;20654;-79
2021/05/21 08:31:37;;;;;;;10.85;0.93;;;13.20;86.10;;;;;;5002795;28;20416;-80
2021/05/21 08:34:02;;;;;;;12.65;1.33;;;13.30;85.30;;;;;;5008303;28;20033;-79
2021/05/21 08:36:28;;;;;;;17.08;1.92;;;13.50;83.80;;;;;;5005969;28;20075;-79
2021/05/21 08:38:53;;;;;;;10.00;0.98;;;13.50;83.70;;;;;;5008960;28;20072;-79
2021/05/21 08:41:26;;;;;;;13.68;1.92;;;13.60;84.00;;;;;;5006044;28;20034;-79
2021/05/21 08:43:53;;;;;;;9.35;1.42;;;13.70;82.10;;;;;;5006808;28;20121;-79
2021/05/21 08:46:20;;;;;;;11.35;1.02;;;13.70;80.20;;;;;;4996183;28;20109;-79
2021/05/21 08:48:46;;;;;;;9.43;0.70;;;13.70;77.60;;;;;;4998050;28;20109;-79
2021/05/21 08:51:16;;;;;;;6.28;1.10;;;13.70;76.90;;;;;;5031434;28;20417;-80
2021/05/21 08:53:42;;;;;;;9.60;0.75;;;13.90;76.90;;;;;;5023929;28;20037;-79
2021/05/21 08:56:08;;;;;;;8.60;1.10;;;14.20;74.10;;;;;;5007941;28;20381;-80
2021/05/21 08:58:35;;;;;;;7.38;0.95;;;14.30;74.70;;;;;;4997631;28;20022;-76
2021/05/21 09:01:00;;;;;;;10.13;0.77;;;14.40;72.70;;;;;;5009121;28;20532;-77
2021/05/21 09:03:28;;;;;;;8.10;0.80;;;14.40;72.80;;;;;;5009353;28;20140;-77
2021/05/21 09:08:50;;;;;;;7.95;1.25;;;14.50;71.70;;;;;;5007333;28;20545;-78
2021/05/21 09:11:28;;;;;;;8.95;0.70;;;14.40;69.90;;;;;;5003094;28;20061;-78
2021/05/21 09:14:11;;;;;;;9.80;0.70;;;14.40;69.20;;;;;;5003995;28;20531;-78
2021/05/21 09:16:42;;;;;;;12.75;0.73;;;14.40;69.80;;;;;;4999358;28;20018;-77
2021/05/21 09:19:18;;;;;;;7.38;0.50;;;14.20;70.30;;;;;;5005798;28;20048;-77
2021/05/21 09:21:58;;;;;;;5.93;0.68;;;14.20;71.30;;;;;;5006573;28;20026;-76
2021/05/21 09:24:42;;;;;;;5.38;0.90;;;14.20;72.00;;;;;;5008142;28;20030;-78
2021/05/21 09:27:08;;;;;;;7.68;0.80;;;14.40;71.90;;;;;;5003914;28;20377;-77
2021/05/21 09:29:45;;;;;;;9.65;0.85;;;14.60;71.40;;;;;;5010579;28;20029;-77
2021/05/21 09:32:15;;;;;;;9.88;0.95;;;14.60;70.30;;;;;;5003672;28;20358;-79
2021/05/21 09:34:41;;;;;;;9.93;1.17;;;14.70;70.00;;;;;;5004570;28;20029;-79
2021/05/21 09:37:19;;;;;;;14.82;1.65;;;14.70;70.30;;;;;;5012132;28;20449;-78
2021/05/21 09:40:11;;;;;;;10.27;1.38;;;14.70;69.40;;;;;;4999912;28;20043;-78
2021/05/21 09:42:56;;;;;;;8.68;1.27;;;14.80;69.60;;;;;;5006860;28;20033;-78
2021/05/21 09:45:23;;;;;;;9.75;1.05;;;14.80;69.00;;;;;;5003536;28;20041;-78
2021/05/21 09:47:59;;;;;;;9.45;1.02;;;14.80;69.50;;;;;;5009425;28;20377;-79
2021/05/21 09:50:30;;;;;;;9.55;1.15;;;14.80;70.40;;;;;;4999470;28;20437;-77
2021/05/21 09:53:04;;;;;;;9.60;1.85;;;14.80;70.90;;;;;;5009403;28;20454;-78
2021/05/21 09:55:32;;;;;;;15.30;1.50;;;14.90;70.60;;;;;;5004312;28;20068;-79
2021/05/21 09:57:58;;;;;;;12.73;1.35;;;14.90;69.90;;;;;;5000309;28;20103;-78
2021/05/21 10:00:24;;;;;;;11.05;1.13;;;14.80;71.00;;;;;;5002278;28;20474;-78
2021/05/21 10:02:49;;;;;;;8.75;1.17;;;14.60;72.50;;;;;;4999066;28;20042;-77
2021/05/21 10:05:15;;;;;;;10.27;1.10;;;14.50;73.00;;;;;;5002247;28;20607;-77
2021/05/21 10:07:42;;;;;;;13.80;2.03;;;14.40;74.60;;;;;;5000104;28;20022;-78
2021/05/21 10:10:08;;;;;;;11.35;1.13;;;14.50;74.30;;;;;;5004698;28;20026;-78
2021/05/21 10:12:34;;;;;;;8.18;1.10;;;14.70;72.80;;;;;;5004933;28;20054;-78
2021/05/21 10:15:00;;;;;;;11.82;1.00;;;15.00;72.10;;;;;;5000305;28;20069;-78
2021/05/21 10:17:28;;;;;;;11.57;1.80;;;15.30;70.60;;;;;;5000559;28;20064;-78
2021/05/21 10:19:55;;;;;;;12.02;1.40;;;15.50;67.30;;;;;;5002057;28;20113;-78
2021/05/21 10:22:29;;;;;;;12.32;1.88;;;15.60;65.10;;;;;;5001332;28;20026;-79
2021/05/21 10:25:01;;;;;;;7.18;0.90;;;15.60;63.70;;;;;;5001333;28;20021;-77
2021/05/21 10:27:31;;;;;;;10.60;1.00;;;15.50;64.00;;;;;;5003268;28;20109;-77
2021/05/21 10:30:03;;;;;;;8.40;0.70;;;15.30;65.50;;;;;;5001871;28;20042;-79
2021/05/21 10:32:30;;;;;;;8.20;0.82;;;15.10;66.20;;;;;;5001168;28;20105;-79
2021/05/21 10:34:57;;;;;;;7.10;0.93;;;14.60;69.50;;;;;;4991859;28;20044;-79
2021/05/21 10:37:27;;;;;;;10.25;1.30;;;14.30;72.90;;;;;;5001378;28;20505;-79
2021/05/21 10:40:02;;;;;;;8.43;0.93;;;14.20;74.70;;;;;;4998930;28;20037;-79
2021/05/21 10:42:29;;;;;;;8.75;0.90;;;14.30;76.10;;;;;;5007792;28;20102;-77
2021/05/21 10:45:12;;;;;;;8.85;1.20;;;14.40;75.90;;;;;;5001628;28;20053;-76
2021/05/21 10:47:39;;;;;;;8.35;1.00;;;14.40;75.40;;;;;;4995464;28;20062;-77
2021/05/21 10:50:06;;;;;;;7.20;0.90;;;14.50;75.10;;;;;;5000305;28;20022;-79
2021/05/21 10:53:01;;;;;;;8.25;0.85;;;14.60;74.90;;;;;;4999785;28;20469;-77
2021/05/21 10:55:51;;;;;;;11.82;1.50;;;14.70;74.60;;;;;;4999694;28;20027;-77
2021/05/21 10:58:27;;;;;;;10.88;1.15;;;14.70;74.30;;;;;;5002986;28;20029;-77
2021/05/21 11:01:09;;;;;;;9.75;1.00;;;14.90;73.60;;;;;;4993335;28;20044;-77
2021/05/21 11:03:54;;;;;;;9.77;0.88;;;15.00;73.10;;;;;;5003020;28;20116;-77
2021/05/21 11:06:20;;;;;;;8.32;0.75;;;15.20;72.80;;;;;;5000206;28;20039;-77
2021/05/21 11:08:46;;;;;;;7.88;0.85;;;15.40;72.00;;;;;;5004977;28;20053;-77
2021/05/21 11:11:13;;;;;;;9.25;0.80;;;15.70;70.30;;;;;;4990981;28;20058;-77
2021/05/21 11:13:38;;;;;;;11.48;1.13;;;16.00;68.80;;;;;;5000066;28;20049;-76
2021/05/21 11:16:11;;;;;;;7.55;1.23;;;16.20;65.50;;;;;;5003411;28;20629;-77
2021/05/21 11:18:46;;;;;;;11.57;0.98;;;16.30;64.90;;;;;;4996510;28;20097;-78
2021/05/21 11:21:17;;;;;;;7.15;0.63;;;16.20;64.10;;;;;;4996102;28;20034;-78
2021/05/21 11:23:46;;;;;;;8.20;0.60;;;16.10;63.20;;;;;;4998149;28;20026;-78
2021/05/21 11:26:17;;;;;;;8.73;1.10;;;15.80;63.80;;;;;;5005723;28;20040;-78
2021/05/21 11:28:53;;;;;;;9.55;0.77;;;15.40;66.40;;;;;;5005796;28;20385;-79
2021/05/21 11:31:25;;;;;;;4.93;0.70;;;15.00;69.50;;;;;;4999416;28;20026;-79
2021/05/21 11:33:52;;;;;;;10.77;0.80;;;14.30;74.00;;;;;;4994350;28;20095;-77
2021/05/21 11:36:25;;;;;;;5.18;0.50;;;13.70;77.50;;;;;;5009620;28;20041;-79
2021/05/21 11:38:51;;;;;;;8.02;1.45;;;13.30;79.60;;;;;;5000412;28;20489;-78
2021/05/21 11:41:18;;;;;;;11.93;1.00;;;13.00;81.50;;;;;;5004662;28;21504;-77
2021/05/21 11:43:45;;;;;;;10.27;0.63;;;12.90;82.90;;;;;;5008280;28;20022;-79
2021/05/21 11:46:17;;;;;;;7.90;1.10;;;13.00;83.10;;;;;;5002721;28;20026;-79
2021/05/21 11:48:43;;;;;;;8.00;0.40;;;13.10;83.90;;;;;;5008876;28;20026;-79
2021/05/21 11:51:16;;;;;;;8.70;0.85;;;13.20;84.00;;;;;;4997031;28;20485;-78
2021/05/21 11:53:55;;;;;;;13.40;0.70;;;13.30;85.00;;;;;;5007591;28;20049;-78
2021/05/21 11:56:34;;;;;;;8.90;0.98;;;13.50;85.10;;;;;;5006604;28;20022;-77
2021/05/21 11:59:05;;;;;;;7.25;0.90;;;13.70;85.50;;;;;;4999017;28;20114;-79
2021/05/21 12:01:32;;;;;;;12.30;1.07;;;13.90;85.70;;;;;;5002594;28;20022;-78
2021/05/21 12:04:05;;;;;;;11.00;1.42;;;14.10;85.50;;;;;;5000807;28;20034;-78
2021/05/21 12:06:32;;;;;;;11.20;1.45;;;14.40;85.00;;;;;;5001922;28;20677;-78
2021/05/21 12:08:58;;;;;;;10.93;1.05;;;14.50;83.00;;;;;;5001670;28;20026;-78
2021/05/21 12:11:27;;;;;;;6.80;0.80;;;14.60;81.90;;;;;;4998774;28;20956;-78
2021/05/21 12:14:27;;;;;;;8.90;0.80;;;14.70;81.80;;;;;;5000393;28;20162;-77
2021/05/21 12:16:53;;;;;;;8.32;1.15;;;15.00;82.20;;;;;;4998085;28;20393;-77
2021/05/21 12:19:20;;;;;;;10.35;0.95;;;15.20;79.50;;;;;;5002031;28;20026;-78
2021/05/21 12:21:47;;;;;;;9.35;0.90;;;15.40;79.00;;;;;;5002068;28;20118;-76
2021/05/21 12:24:17;;;;;;;10.73;1.92;;;15.60;77.80;;;;;;4999685;28;20366;-77
2021/05/21 12:26:44;;;;;;;9.57;1.33;;;15.70;77.30;;;;;;5003205;28;20026;-76
2021/05/21 12:29:12;;;;;;;10.45;0.95;;;15.80;76.00;;;;;;5000327;28;20018;-76
2021/05/21 12:31:47;;;;;;;9.10;1.10;;;15.90;75.00;;;;;;5000056;28;20147;-77
2021/05/21 12:34:16;;;;;;;9.90;1.20;;;16.00;74.70;;;;;;4997691;28;20401;-76
2021/05/21 12:36:42;;;;;;;10.90;0.77;;;16.20;74.70;;;;;;4999919;28;20030;-77
2021/05/21 12:39:09;;;;;;;7.35;0.80;;;16.30;72.80;;;;;;5006516;28;20033;-77
2021/05/21 12:41:40;;;;;;;10.52;0.80;;;16.30;72.30;;;;;;4999905;28;20108;-76
2021/05/21 12:44:07;;;;;;;8.10;1.10;;;16.10;70.90;;;;;;5006534;28;20034;-76
2021/05/21 12:46:38;;;;;;;6.82;0.80;;;15.90;66.30;;;;;;5004733;28;20538;-75
2021/05/21 12:49:07;;;;;;;4.80;0.60;;;15.60;64.90;;;;;;5000449;28;20034;-78